createdAt,value
2019-01-08T00:06:26.494Z,7.1
2019-01-08T00:16:42.061Z,7.0
2019-01-08T00:27:28.560Z,6.8
2019-01-08T00:37:43.824Z,6.8
2019-01-08T00:48:02.283Z,6.7
2019-01-08T00:58:17.273Z,6.6
2019-01-08T01:09:09.214Z,6.5
2019-01-08T01:20:00.228Z,6.6
2019-01-08T01:30:18.483Z,6.6
2019-01-08T01:40:36.454Z,6.5
2019-01-08T01:50:51.671Z,6.5
2019-01-08T02:01:41.883Z,6.5
2019-01-08T02:11:58.940Z,6.5
2019-01-08T02:22:18.670Z,6.5
2019-01-08T02:32:35.056Z,6.4
2019-01-08T02:43:33.565Z,6.2
2019-01-08T02:53:51.891Z,6.2
2019-01-08T03:04:07.254Z,6.2
2019-01-08T03:14:22.311Z,6.2
2019-01-08T03:25:23.646Z,6.2
2019-01-08T03:35:43.040Z,6.1
2019-01-08T03:45:59.632Z,6.2
2019-01-08T03:56:46.855Z,6.2
2019-01-08T04:07:05.714Z,6.2
2019-01-08T04:17:55.019Z,6.2
2019-01-08T04:28:11.884Z,6.2
2019-01-08T04:38:32.976Z,6.2
2019-01-08T04:49:31.059Z,6.1
2019-01-08T05:00:20.561Z,6.1
2019-01-08T05:11:08.889Z,6.1
2019-01-08T05:21:26.158Z,6.1
2019-01-08T05:32:02.549Z,6.0
2019-01-08T05:42:19.386Z,6.0
2019-01-08T05:53:18.156Z,5.8
2019-01-08T06:04:06.591Z,5.8
2019-01-08T06:14:59.909Z,5.8
2019-01-08T06:25:47.324Z,5.8
2019-01-08T06:36:08.229Z,5.8
2019-01-08T06:47:07.900Z,5.8
2019-01-08T06:57:38.799Z,5.8
2019-01-08T07:09:14.813Z,5.8
2019-01-08T07:19:32.472Z,5.8
2019-01-08T07:29:52.017Z,5.8
2019-01-08T07:40:43.622Z,5.8
2019-01-08T07:51:07.934Z,5.8
2019-01-08T08:01:58.954Z,5.8
2019-01-08T08:12:49.746Z,5.8
2019-01-08T08:23:04.668Z,5.9
2019-01-08T08:33:54.814Z,5.9
2019-01-08T08:44:50.272Z,5.9
2019-01-08T08:55:41.985Z,5.9
2019-01-08T09:06:31.469Z,5.9
2019-01-08T09:17:20.966Z,6.0
2019-01-08T09:28:13.653Z,6.0
2019-01-08T09:38:32.206Z,6.0
2019-01-08T09:49:20.350Z,6.1
2019-01-08T09:59:39.403Z,6.1
2019-01-08T10:09:58.506Z,6.2
2019-01-08T10:20:16.211Z,6.2
2019-01-08T10:31:32.091Z,6.4
2019-01-08T10:41:46.622Z,6.4
2019-01-08T10:52:08.743Z,6.5
2019-01-08T11:02:26.595Z,6.6
2019-01-08T11:13:18.319Z,6.7
2019-01-08T11:23:37.291Z,6.7
2019-01-08T11:33:54.074Z,6.8
2019-01-08T11:44:49.771Z,7.0
2019-01-08T11:55:07.530Z,7.1
2019-01-08T12:06:03.932Z,7.1
2019-01-08T12:16:52.566Z,7.2
2019-01-08T12:27:47.934Z,7.2
2019-01-08T12:38:47.252Z,7.2
2019-01-08T12:49:03.617Z,7.2
2019-01-08T12:59:54.893Z,7.2
2019-01-08T13:12:49.996Z,7.1
2019-01-08T13:23:37.106Z,7.2
2019-01-08T13:33:53.869Z,7.2
2019-01-08T13:44:11.197Z,7.1
2019-01-08T13:55:01.135Z,6.8
2019-01-08T14:06:02.107Z,6.7
2019-01-08T14:17:27.867Z,6.7
2019-01-08T14:27:46.800Z,6.7
2019-01-08T14:38:07.199Z,6.6
2019-01-08T14:49:00.723Z,6.5
2019-01-08T14:59:52.654Z,6.5
2019-01-08T15:10:09.279Z,6.5
2019-01-08T15:20:24.645Z,6.4
2019-01-08T15:30:43.384Z,6.3
2019-01-08T15:41:31.877Z,6.1
2019-01-08T15:52:22.517Z,6.0
2019-01-08T16:02:37.981Z,5.9
2019-01-08T16:13:27.659Z,5.7
2019-01-08T16:24:18.622Z,5.7
2019-01-08T16:34:36.589Z,5.7
2019-01-08T16:45:30.747Z,5.6
2019-01-08T16:55:46.340Z,5.6
2019-01-08T17:06:52.476Z,5.5
2019-01-08T17:17:06.384Z,5.5
2019-01-08T17:28:00.851Z,5.4
2019-01-08T17:38:53.458Z,5.3
2019-01-08T17:50:11.742Z,5.2
2019-01-08T18:01:00.071Z,5.2
2019-01-08T18:12:11.292Z,5.1
2019-01-08T18:23:00.126Z,5.1
2019-01-08T18:33:19.562Z,5.1
2019-01-08T18:43:40.599Z,5.0
2019-01-08T18:54:43.789Z,4.9
2019-01-08T19:05:30.814Z,4.9
2019-01-08T19:15:49.953Z,4.9
2019-01-08T19:26:42.990Z,4.8
2019-01-08T19:37:49.806Z,4.8
2019-01-08T19:48:21.406Z,4.8
2019-01-08T19:59:24.112Z,4.8
2019-01-08T20:09:45.222Z,4.7
2019-01-08T20:20:50.325Z,4.7
2019-01-08T20:31:16.509Z,4.7
2019-01-08T20:41:33.122Z,4.6
2019-01-08T20:53:13.819Z,4.5
2019-01-08T21:03:32.718Z,4.5
2019-01-08T21:14:35.588Z,4.5
2019-01-08T21:25:10.362Z,4.5
2019-01-08T21:35:38.699Z,4.4
2019-01-08T21:46:36.090Z,4.3
2019-01-08T21:56:56.323Z,4.3
2019-01-08T22:07:46.876Z,4.1
2019-01-08T22:18:03.875Z,4.1
2019-01-08T22:28:24.531Z,4.0
2019-01-08T22:39:24.331Z,3.8
2019-01-08T22:49:47.371Z,3.8
2019-01-08T23:00:40.611Z,3.8
2019-01-08T23:11:00.433Z,3.8
2019-01-08T23:22:03.375Z,3.9
2019-01-08T23:32:54.770Z,4.0
2019-01-08T23:44:00.141Z,4.0
2019-01-08T23:54:18.374Z,4.0
